sensor_id;sensor_type;location;lat;lon;timestamp;P1;durP1;ratioP1;P2;durP2;ratioP2
78561;SDS011;68963;52.138;5.446;2023-04-15T00:01:48;14.23;;;7.05;;
78561;SDS011;68963;52.138;5.446;2023-04-15T00:04:15;14.13;;;6.70;;
78561;SDS011;68963;52.138;5.446;2023-04-15T00:06:41;13.43;;;6.30;;
78561;SDS011;68963;52.138;5.446;2023-04-15T00:09:08;11.52;;;6.45;;
78561;SDS011;68963;52.138;5.446;2023-04-15T00:11:34;13.30;;;6.88;;
78561;SDS011;68963;52.138;5.446;2023-04-15T00:14:01;13.70;;;6.63;;
78561;SDS011;68963;52.138;5.446;2023-04-15T00:16:27;13.43;;;6.32;;
78561;SDS011;68963;52.138;5.446;2023-04-15T00:18:54;14.07;;;6.38;;
78561;SDS011;68963;52.138;5.446;2023-04-15T00:21:20;11.52;;;6.13;;
78561;SDS011;68963;52.138;5.446;2023-04-15T00:23:47;12.45;;;6.45;;
78561;SDS011;68963;52.138;5.446;2023-04-15T00:26:17;15.02;;;6.20;;
78561;SDS011;68963;52.138;5.446;2023-04-15T00:28:45;12.00;;;5.97;;
78561;SDS011;68963;52.138;5.446;2023-04-15T00:31:12;12.25;;;6.32;;
78561;SDS011;68963;52.138;5.446;2023-04-15T00:33:38;14.75;;;6.05;;
78561;SDS011;68963;52.138;5.446;2023-04-15T00:36:05;11.95;;;6.63;;
78561;SDS011;68963;52.138;5.446;2023-04-15T00:38:32;13.27;;;6.80;;
78561;SDS011;68963;52.138;5.446;2023-04-15T00:40:58;12.50;;;6.60;;
78561;SDS011;68963;52.138;5.446;2023-04-15T00:43:25;12.98;;;6.45;;
78561;SDS011;68963;52.138;5.446;2023-04-15T00:45:52;13.00;;;6.63;;
78561;SDS011;68963;52.138;5.446;2023-04-15T00:48:22;13.40;;;6.55;;
78561;SDS011;68963;52.138;5.446;2023-04-15T00:50:49;13.65;;;6.82;;
78561;SDS011;68963;52.138;5.446;2023-04-15T00:53:16;11.63;;;6.45;;
78561;SDS011;68963;52.138;5.446;2023-04-15T00:55:42;13.52;;;7.15;;
78561;SDS011;68963;52.138;5.446;2023-04-15T00:58:09;12.52;;;6.50;;
78561;SDS011;68963;52.138;5.446;2023-04-15T01:00:35;12.93;;;6.32;;
78561;SDS011;68963;52.138;5.446;2023-04-15T01:03:02;16.13;;;6.82;;
78561;SDS011;68963;52.138;5.446;2023-04-15T01:05:29;13.02;;;7.00;;
78561;SDS011;68963;52.138;5.446;2023-04-15T01:07:56;14.00;;;7.05;;
78561;SDS011;68963;52.138;5.446;2023-04-15T01:10:23;13.35;;;7.18;;
78561;SDS011;68963;52.138;5.446;2023-04-15T01:12:49;12.27;;;6.97;;
78561;SDS011;68963;52.138;5.446;2023-04-15T01:15:16;14.68;;;7.07;;
78561;SDS011;68963;52.138;5.446;2023-04-15T01:17:43;13.45;;;6.82;;
78561;SDS011;68963;52.138;5.446;2023-04-15T01:20:10;13.23;;;6.43;;
78561;SDS011;68963;52.138;5.446;2023-04-15T01:22:37;13.70;;;7.03;;
78561;SDS011;68963;52.138;5.446;2023-04-15T01:25:05;14.73;;;7.00;;
78561;SDS011;68963;52.138;5.446;2023-04-15T01:27:35;15.07;;;7.05;;
78561;SDS011;68963;52.138;5.446;2023-04-15T01:30:05;12.68;;;6.47;;
78561;SDS011;68963;52.138;5.446;2023-04-15T01:32:33;12.57;;;6.18;;
78561;SDS011;68963;52.138;5.446;2023-04-15T01:34:59;12.77;;;6.38;;
78561;SDS011;68963;52.138;5.446;2023-04-15T01:37:26;14.30;;;6.32;;
78561;SDS011;68963;52.138;5.446;2023-04-15T01:39:52;11.93;;;6.20;;
78561;SDS011;68963;52.138;5.446;2023-04-15T01:42:22;12.10;;;6.05;;
78561;SDS011;68963;52.138;5.446;2023-04-15T01:44:49;11.98;;;6.30;;
78561;SDS011;68963;52.138;5.446;2023-04-15T01:47:15;12.23;;;6.43;;
78561;SDS011;68963;52.138;5.446;2023-04-15T01:49:41;11.45;;;5.85;;
78561;SDS011;68963;52.138;5.446;2023-04-15T01:52:08;12.02;;;6.30;;
78561;SDS011;68963;52.138;5.446;2023-04-15T01:54:34;12.57;;;6.28;;
78561;SDS011;68963;52.138;5.446;2023-04-15T01:57:01;12.50;;;6.20;;
78561;SDS011;68963;52.138;5.446;2023-04-15T01:59:28;13.13;;;6.93;;
78561;SDS011;68963;52.138;5.446;2023-04-15T02:01:56;12.70;;;6.85;;
78561;SDS011;68963;52.138;5.446;2023-04-15T02:04:23;11.90;;;6.28;;
78561;SDS011;68963;52.138;5.446;2023-04-15T02:06:49;12.38;;;6.40;;
78561;SDS011;68963;52.138;5.446;2023-04-15T02:09:16;10.05;;;5.70;;
78561;SDS011;68963;52.138;5.446;2023-04-15T02:11:42;14.05;;;6.47;;
78561;SDS011;68963;52.138;5.446;2023-04-15T02:14:08;13.27;;;5.78;;
78561;SDS011;68963;52.138;5.446;2023-04-15T02:16:35;12.27;;;6.35;;
78561;SDS011;68963;52.138;5.446;2023-04-15T02:19:02;13.35;;;6.32;;
78561;SDS011;68963;52.138;5.446;2023-04-15T02:21:29;12.60;;;6.53;;
78561;SDS011;68963;52.138;5.446;2023-04-15T02:23:55;11.50;;;5.80;;
78561;SDS011;68963;52.138;5.446;2023-04-15T02:26:22;13.35;;;6.43;;
78561;SDS011;68963;52.138;5.446;2023-04-15T02:28:50;13.10;;;5.72;;
78561;SDS011;68963;52.138;5.446;2023-04-15T02:31:16;9.55;;;5.35;;
78561;SDS011;68963;52.138;5.446;2023-04-15T02:33:43;11.93;;;6.05;;
78561;SDS011;68963;52.138;5.446;2023-04-15T02:36:10;11.68;;;5.72;;
78561;SDS011;68963;52.138;5.446;2023-04-15T02:38:37;13.25;;;5.97;;
78561;SDS011;68963;52.138;5.446;2023-04-15T02:41:05;12.02;;;6.50;;
78561;SDS011;68963;52.138;5.446;2023-04-15T02:43:32;13.63;;;6.15;;
78561;SDS011;68963;52.138;5.446;2023-04-15T02:45:58;11.48;;;5.63;;
78561;SDS011;68963;52.138;5.446;2023-04-15T02:48:25;10.27;;;5.45;;
78561;SDS011;68963;52.138;5.446;2023-04-15T02:50:52;10.65;;;5.93;;
78561;SDS011;68963;52.138;5.446;2023-04-15T02:53:18;13.23;;;5.53;;
78561;SDS011;68963;52.138;5.446;2023-04-15T02:55:45;13.43;;;5.97;;
78561;SDS011;68963;52.138;5.446;2023-04-15T02:58:12;13.50;;;6.30;;
78561;SDS011;68963;52.138;5.446;2023-04-15T03:00:38;13.98;;;5.75;;
78561;SDS011;68963;52.138;5.446;2023-04-15T03:03:05;11.32;;;5.57;;
78561;SDS011;68963;52.138;5.446;2023-04-15T03:05:32;11.52;;;5.70;;
78561;SDS011;68963;52.138;5.446;2023-04-15T03:07:59;10.80;;;6.22;;
78561;SDS011;68963;52.138;5.446;2023-04-15T03:10:26;10.50;;;5.60;;
78561;SDS011;68963;52.138;5.446;2023-04-15T03:12:53;13.23;;;6.05;;
78561;SDS011;68963;52.138;5.446;2023-04-15T03:15:19;12.00;;;6.40;;
78561;SDS011;68963;52.138;5.446;2023-04-15T03:17:46;11.48;;;5.90;;
78561;SDS011;68963;52.138;5.446;2023-04-15T03:20:14;13.27;;;5.75;;
78561;SDS011;68963;52.138;5.446;2023-04-15T03:22:42;11.43;;;5.70;;
78561;SDS011;68963;52.138;5.446;2023-04-15T03:25:08;11.27;;;5.85;;
78561;SDS011;68963;52.138;5.446;2023-04-15T03:27:35;15.75;;;5.90;;
78561;SDS011;68963;52.138;5.446;2023-04-15T03:30:03;11.30;;;5.65;;
78561;SDS011;68963;52.138;5.446;2023-04-15T03:32:29;15.02;;;6.45;;
78561;SDS011;68963;52.138;5.446;2023-04-15T03:34:56;12.93;;;6.30;;
78561;SDS011;68963;52.138;5.446;2023-04-15T03:37:23;12.80;;;6.15;;
78561;SDS011;68963;52.138;5.446;2023-04-15T03:39:49;11.63;;;5.90;;
78561;SDS011;68963;52.138;5.446;2023-04-15T03:42:16;13.57;;;6.25;;
78561;SDS011;68963;52.138;5.446;2023-04-15T03:44:42;14.40;;;6.30;;
78561;SDS011;68963;52.138;5.446;2023-04-15T03:47:09;12.18;;;6.28;;
78561;SDS011;68963;52.138;5.446;2023-04-15T03:49:35;15.48;;;6.30;;
78561;SDS011;68963;52.138;5.446;2023-04-15T03:52:02;13.00;;;6.15;;
78561;SDS011;68963;52.138;5.446;2023-04-15T03:54:28;14.07;;;6.10;;
78561;SDS011;68963;52.138;5.446;2023-04-15T03:56:55;13.02;;;6.20;;
78561;SDS011;68963;52.138;5.446;2023-04-15T03:59:22;13.52;;;6.10;;
78561;SDS011;68963;52.138;5.446;2023-04-15T04:01:48;12.25;;;6.28;;
78561;SDS011;68963;52.138;5.446;2023-04-15T04:04:15;12.07;;;5.90;;
78561;SDS011;68963;52.138;5.446;2023-04-15T04:06:41;11.25;;;5.47;;
78561;SDS011;68963;52.138;5.446;2023-04-15T04:09:08;12.93;;;6.35;;
78561;SDS011;68963;52.138;5.446;2023-04-15T04:11:34;10.35;;;5.75;;
78561;SDS011;68963;52.138;5.446;2023-04-15T04:14:02;12.43;;;5.97;;
78561;SDS011;68963;52.138;5.446;2023-04-15T04:16:29;10.55;;;5.40;;
78561;SDS011;68963;52.138;5.446;2023-04-15T04:18:55;13.02;;;5.80;;
78561;SDS011;68963;52.138;5.446;2023-04-15T04:21:22;12.30;;;6.30;;
78561;SDS011;68963;52.138;5.446;2023-04-15T04:23:48;13.30;;;5.88;;
78561;SDS011;68963;52.138;5.446;2023-04-15T04:26:15;11.30;;;6.13;;
78561;SDS011;68963;52.138;5.446;2023-04-15T04:28:42;16.02;;;6.15;;
78561;SDS011;68963;52.138;5.446;2023-04-15T04:31:09;12.85;;;6.18;;
78561;SDS011;68963;52.138;5.446;2023-04-15T04:33:35;12.82;;;6.03;;
78561;SDS011;68963;52.138;5.446;2023-04-15T04:36:02;13.45;;;6.05;;
78561;SDS011;68963;52.138;5.446;2023-04-15T04:38:28;14.07;;;6.32;;
78561;SDS011;68963;52.138;5.446;2023-04-15T04:40:55;13.15;;;6.50;;
78561;SDS011;68963;52.138;5.446;2023-04-15T04:43:21;11.75;;;5.65;;
78561;SDS011;68963;52.138;5.446;2023-04-15T04:45:48;11.88;;;6.45;;
78561;SDS011;68963;52.138;5.446;2023-04-15T04:48:14;14.70;;;6.90;;
78561;SDS011;68963;52.138;5.446;2023-04-15T04:50:42;13.55;;;5.88;;
78561;SDS011;68963;52.138;5.446;2023-04-15T04:53:09;13.40;;;6.55;;
78561;SDS011;68963;52.138;5.446;2023-04-15T04:55:36;13.15;;;6.22;;
78561;SDS011;68963;52.138;5.446;2023-04-15T04:58:02;13.70;;;6.00;;
78561;SDS011;68963;52.138;5.446;2023-04-15T05:00:29;12.02;;;6.03;;
78561;SDS011;68963;52.138;5.446;2023-04-15T05:02:55;12.85;;;6.35;;
78561;SDS011;68963;52.138;5.446;2023-04-15T05:05:22;13.40;;;6.13;;
78561;SDS011;68963;52.138;5.446;2023-04-15T05:07:49;14.13;;;6.38;;
78561;SDS011;68963;52.138;5.446;2023-04-15T05:10:16;12.43;;;5.97;;
78561;SDS011;68963;52.138;5.446;2023-04-15T05:12:43;13.77;;;6.57;;
78561;SDS011;68963;52.138;5.446;2023-04-15T05:15:10;12.25;;;5.85;;
78561;SDS011;68963;52.138;5.446;2023-04-15T05:17:36;13.73;;;6.35;;
78561;SDS011;68963;52.138;5.446;2023-04-15T05:20:03;14.77;;;6.55;;
78561;SDS011;68963;52.138;5.446;2023-04-15T05:22:30;15.60;;;7.40;;
78561;SDS011;68963;52.138;5.446;2023-04-15T05:24:56;15.90;;;7.00;;
78561;SDS011;68963;52.138;5.446;2023-04-15T05:27:23;14.65;;;6.63;;
78561;SDS011;68963;52.138;5.446;2023-04-15T05:29:50;13.48;;;6.55;;
78561;SDS011;68963;52.138;5.446;2023-04-15T05:32:16;13.63;;;6.38;;
78561;SDS011;68963;52.138;5.446;2023-04-15T05:34:43;12.90;;;6.07;;
78561;SDS011;68963;52.138;5.446;2023-04-15T05:37:10;15.07;;;6.80;;
78561;SDS011;68963;52.138;5.446;2023-04-15T05:39:37;13.05;;;6.95;;
78561;SDS011;68963;52.138;5.446;2023-04-15T05:42:03;12.93;;;6.53;;
78561;SDS011;68963;52.138;5.446;2023-04-15T05:44:31;15.00;;;7.03;;
78561;SDS011;68963;52.138;5.446;2023-04-15T05:46:58;12.38;;;6.18;;
78561;SDS011;68963;52.138;5.446;2023-04-15T05:49:24;15.00;;;6.93;;
78561;SDS011;68963;52.138;5.446;2023-04-15T05:51:51;14.98;;;6.53;;
78561;SDS011;68963;52.138;5.446;2023-04-15T05:54:17;15.07;;;6.85;;
78561;SDS011;68963;52.138;5.446;2023-04-15T05:56:45;14.43;;;6.85;;
78561;SDS011;68963;52.138;5.446;2023-04-15T05:59:12;14.75;;;7.15;;
78561;SDS011;68963;52.138;5.446;2023-04-15T06:01:38;14.30;;;7.57;;
78561;SDS011;68963;52.138;5.446;2023-04-15T06:04:05;14.75;;;6.93;;
78561;SDS011;68963;52.138;5.446;2023-04-15T06:06:32;15.68;;;7.10;;
78561;SDS011;68963;52.138;5.446;2023-04-15T06:08:58;16.55;;;7.22;;
78561;SDS011;68963;52.138;5.446;2023-04-15T06:11:25;14.70;;;7.88;;
78561;SDS011;68963;52.138;5.446;2023-04-15T06:13:52;14.15;;;7.05;;
78561;SDS011;68963;52.138;5.446;2023-04-15T06:16:18;16.30;;;7.65;;
78561;SDS011;68963;52.138;5.446;2023-04-15T06:18:45;16.10;;;7.13;;
78561;SDS011;68963;52.138;5.446;2023-04-15T06:21:11;16.08;;;7.55;;
78561;SDS011;68963;52.138;5.446;2023-04-15T06:23:38;15.23;;;7.05;;
78561;SDS011;68963;52.138;5.446;2023-04-15T06:26:06;16.15;;;8.15;;
78561;SDS011;68963;52.138;5.446;2023-04-15T06:28:33;15.13;;;7.55;;
78561;SDS011;68963;52.138;5.446;2023-04-15T06:30:59;15.23;;;7.47;;
78561;SDS011;68963;52.138;5.446;2023-04-15T06:33:27;15.98;;;7.70;;
78561;SDS011;68963;52.138;5.446;2023-04-15T06:35:53;14.75;;;7.28;;
78561;SDS011;68963;52.138;5.446;2023-04-15T06:38:20;16.25;;;7.75;;
78561;SDS011;68963;52.138;5.446;2023-04-15T06:40:46;16.67;;;7.68;;
78561;SDS011;68963;52.138;5.446;2023-04-15T06:43:13;15.63;;;7.30;;
78561;SDS011;68963;52.138;5.446;2023-04-15T06:45:40;16.52;;;7.78;;
78561;SDS011;68963;52.138;5.446;2023-04-15T06:48:07;17.48;;;8.30;;
78561;SDS011;68963;52.138;5.446;2023-04-15T06:50:33;15.88;;;7.85;;
78561;SDS011;68963;52.138;5.446;2023-04-15T06:53:00;19.50;;;7.85;;
78561;SDS011;68963;52.138;5.446;2023-04-15T06:55:27;14.52;;;6.93;;
78561;SDS011;68963;52.138;5.446;2023-04-15T06:57:53;15.88;;;8.00;;
78561;SDS011;68963;52.138;5.446;2023-04-15T07:00:20;16.27;;;8.10;;
78561;SDS011;68963;52.138;5.446;2023-04-15T07:02:47;16.50;;;7.75;;
78561;SDS011;68963;52.138;5.446;2023-04-15T07:05:14;16.02;;;8.27;;
78561;SDS011;68963;52.138;5.446;2023-04-15T07:07:41;16.42;;;8.90;;
78561;SDS011;68963;52.138;5.446;2023-04-15T07:10:08;14.57;;;7.85;;
78561;SDS011;68963;52.138;5.446;2023-04-15T07:12:35;18.42;;;8.55;;
78561;SDS011;68963;52.138;5.446;2023-04-15T07:15:01;17.25;;;8.02;;
78561;SDS011;68963;52.138;5.446;2023-04-15T07:17:28;18.42;;;8.60;;
78561;SDS011;68963;52.138;5.446;2023-04-15T07:19:55;19.02;;;8.30;;
78561;SDS011;68963;52.138;5.446;2023-04-15T07:22:21;17.20;;;8.05;;
78561;SDS011;68963;52.138;5.446;2023-04-15T07:24:48;16.52;;;8.68;;
78561;SDS011;68963;52.138;5.446;2023-04-15T07:27:14;16.60;;;7.68;;
78561;SDS011;68963;52.138;5.446;2023-04-15T07:29:42;15.27;;;7.75;;
78561;SDS011;68963;52.138;5.446;2023-04-15T07:32:09;16.13;;;7.40;;
78561;SDS011;68963;52.138;5.446;2023-04-15T07:34:36;17.45;;;7.63;;
78561;SDS011;68963;52.138;5.446;2023-04-15T07:37:03;15.20;;;7.00;;
78561;SDS011;68963;52.138;5.446;2023-04-15T07:39:29;13.65;;;6.80;;
78561;SDS011;68963;52.138;5.446;2023-04-15T07:41:56;14.23;;;6.07;;
78561;SDS011;68963;52.138;5.446;2023-04-15T07:44:25;12.55;;;6.70;;
78561;SDS011;68963;52.138;5.446;2023-04-15T07:46:52;12.93;;;5.85;;
78561;SDS011;68963;52.138;5.446;2023-04-15T07:49:19;10.32;;;5.18;;
78561;SDS011;68963;52.138;5.446;2023-04-15T07:51:46;11.82;;;5.38;;
78561;SDS011;68963;52.138;5.446;2023-04-15T07:54:14;12.45;;;5.38;;
78561;SDS011;68963;52.138;5.446;2023-04-15T07:56:40;10.60;;;4.70;;
78561;SDS011;68963;52.138;5.446;2023-04-15T07:59:07;10.38;;;5.70;;
78561;SDS011;68963;52.138;5.446;2023-04-15T08:01:35;13.18;;;5.32;;
78561;SDS011;68963;52.138;5.446;2023-04-15T08:04:02;11.40;;;5.88;;
78561;SDS011;68963;52.138;5.446;2023-04-15T08:06:29;11.13;;;5.38;;
78561;SDS011;68963;52.138;5.446;2023-04-15T08:08:56;11.43;;;5.93;;
78561;SDS011;68963;52.138;5.446;2023-04-15T08:11:22;10.35;;;5.25;;
78561;SDS011;68963;52.138;5.446;2023-04-15T08:13:49;11.68;;;5.70;;
78561;SDS011;68963;52.138;5.446;2023-04-15T08:16:21;10.00;;;4.90;;
78561;SDS011;68963;52.138;5.446;2023-04-15T08:18:50;10.80;;;5.35;;
78561;SDS011;68963;52.138;5.446;2023-04-15T08:23:45;8.82;;;4.50;;
78561;SDS011;68963;52.138;5.446;2023-04-15T08:26:12;8.52;;;4.28;;
78561;SDS011;68963;52.138;5.446;2023-04-15T08:28:39;8.93;;;4.63;;
78561;SDS011;68963;52.138;5.446;2023-04-15T08:31:07;9.65;;;4.70;;
78561;SDS011;68963;52.138;5.446;2023-04-15T08:33:34;10.02;;;4.03;;
78561;SDS011;68963;52.138;5.446;2023-04-15T08:36:01;8.50;;;3.88;;
78561;SDS011;68963;52.138;5.446;2023-04-15T08:38:28;9.48;;;4.10;;
78561;SDS011;68963;52.138;5.446;2023-04-15T08:40:55;9.20;;;4.03;;
78561;SDS011;68963;52.138;5.446;2023-04-15T08:43:28;8.73;;;4.20;;
78561;SDS011;68963;52.138;5.446;2023-04-15T08:45:59;9.35;;;4.13;;
78561;SDS011;68963;52.138;5.446;2023-04-15T08:48:27;8.57;;;4.05;;
78561;SDS011;68963;52.138;5.446;2023-04-15T08:50:56;10.55;;;4.38;;
78561;SDS011;68963;52.138;5.446;2023-04-15T08:53:24;9.20;;;4.55;;
78561;SDS011;68963;52.138;5.446;2023-04-15T08:55:51;9.40;;;4.40;;
78561;SDS011;68963;52.138;5.446;2023-04-15T08:58:20;9.18;;;4.10;;
78561;SDS011;68963;52.138;5.446;2023-04-15T09:00:47;8.23;;;3.95;;
78561;SDS011;68963;52.138;5.446;2023-04-15T09:03:14;9.57;;;4.65;;
78561;SDS011;68963;52.138;5.446;2023-04-15T09:05:42;9.60;;;4.80;;
78561;SDS011;68963;52.138;5.446;2023-04-15T09:08:09;8.65;;;4.85;;
78561;SDS011;68963;52.138;5.446;2023-04-15T09:10:36;9.40;;;4.45;;
78561;SDS011;68963;52.138;5.446;2023-04-15T09:13:02;8.40;;;4.05;;
78561;SDS011;68963;52.138;5.446;2023-04-15T09:15:29;12.27;;;5.13;;
78561;SDS011;68963;52.138;5.446;2023-04-15T09:20:24;9.25;;;4.07;;
78561;SDS011;68963;52.138;5.446;2023-04-15T09:22:50;10.05;;;4.40;;
78561;SDS011;68963;52.138;5.446;2023-04-15T09:27:47;8.98;;;4.47;;
78561;SDS011;68963;52.138;5.446;2023-04-15T09:30:14;8.60;;;4.68;;
78561;SDS011;68963;52.138;5.446;2023-04-15T09:32:48;8.73;;;4.55;;
78561;SDS011;68963;52.138;5.446;2023-04-15T09:35:17;9.20;;;4.53;;
78561;SDS011;68963;52.138;5.446;2023-04-15T09:37:44;7.38;;;3.80;;
78561;SDS011;68963;52.138;5.446;2023-04-15T09:40:10;8.20;;;3.75;;
78561;SDS011;68963;52.138;5.446;2023-04-15T09:42:53;7.07;;;3.70;;
78561;SDS011;68963;52.138;5.446;2023-04-15T09:45:21;8.75;;;3.78;;
78561;SDS011;68963;52.138;5.446;2023-04-15T09:47:50;9.45;;;4.13;;
78561;SDS011;68963;52.138;5.446;2023-04-15T09:50:18;9.57;;;4.22;;
78561;SDS011;68963;52.138;5.446;2023-04-15T09:52:45;12.40;;;4.90;;
78561;SDS011;68963;52.138;5.446;2023-04-15T09:55:13;9.57;;;4.53;;
78561;SDS011;68963;52.138;5.446;2023-04-15T09:57:41;8.30;;;4.40;;
78561;SDS011;68963;52.138;5.446;2023-04-15T10:02:36;7.80;;;2.58;;
78561;SDS011;68963;52.138;5.446;2023-04-15T10:05:05;7.20;;;3.20;;
78561;SDS011;68963;52.138;5.446;2023-04-15T10:07:32;8.45;;;3.83;;
78561;SDS011;68963;52.138;5.446;2023-04-15T10:10:00;6.50;;;3.08;;
78561;SDS011;68963;52.138;5.446;2023-04-15T10:12:28;7.32;;;3.20;;
78561;SDS011;68963;52.138;5.446;2023-04-15T10:15:01;6.70;;;3.15;;
78561;SDS011;68963;52.138;5.446;2023-04-15T10:17:33;7.13;;;3.42;;
78561;SDS011;68963;52.138;5.446;2023-04-15T10:20:00;7.13;;;3.15;;
78561;SDS011;68963;52.138;5.446;2023-04-15T10:22:30;6.70;;;3.00;;
78561;SDS011;68963;52.138;5.446;2023-04-15T10:24:57;6.10;;;3.20;;
78561;SDS011;68963;52.138;5.446;2023-04-15T10:27:26;7.57;;;3.20;;
78561;SDS011;68963;52.138;5.446;2023-04-15T10:29:53;6.40;;;3.08;;
78561;SDS011;68963;52.138;5.446;2023-04-15T10:32:20;6.65;;;2.92;;
78561;SDS011;68963;52.138;5.446;2023-04-15T10:34:47;7.57;;;3.63;;
78561;SDS011;68963;52.138;5.446;2023-04-15T10:37:33;6.93;;;3.30;;
78561;SDS011;68963;52.138;5.446;2023-04-15T10:42:53;5.82;;;3.20;;
78561;SDS011;68963;52.138;5.446;2023-04-15T10:45:21;7.85;;;3.22;;
78561;SDS011;68963;52.138;5.446;2023-04-15T10:47:51;7.20;;;3.35;;
78561;SDS011;68963;52.138;5.446;2023-04-15T10:50:20;7.53;;;3.60;;
78561;SDS011;68963;52.138;5.446;2023-04-15T10:52:49;6.50;;;3.05;;
78561;SDS011;68963;52.138;5.446;2023-04-15T10:55:23;7.15;;;3.40;;
78561;SDS011;68963;52.138;5.446;2023-04-15T10:57:51;6.00;;;3.25;;
78561;SDS011;68963;52.138;5.446;2023-04-15T11:00:19;5.93;;;3.10;;
78561;SDS011;68963;52.138;5.446;2023-04-15T11:02:55;5.47;;;2.92;;
78561;SDS011;68963;52.138;5.446;2023-04-15T11:08:07;6.75;;;2.95;;
78561;SDS011;68963;52.138;5.446;2023-04-15T11:13:04;6.20;;;2.92;;
78561;SDS011;68963;52.138;5.446;2023-04-15T11:15:46;6.20;;;3.10;;
78561;SDS011;68963;52.138;5.446;2023-04-15T11:18:14;6.15;;;2.92;;
78561;SDS011;68963;52.138;5.446;2023-04-15T11:20:45;5.80;;;3.03;;
78561;SDS011;68963;52.138;5.446;2023-04-15T11:23:13;5.47;;;2.70;;
78561;SDS011;68963;52.138;5.446;2023-04-15T11:25:41;5.18;;;2.38;;
78561;SDS011;68963;52.138;5.446;2023-04-15T11:28:09;4.43;;;2.10;;
78561;SDS011;68963;52.138;5.446;2023-04-15T11:33:05;6.20;;;2.28;;
78561;SDS011;68963;52.138;5.446;2023-04-15T11:35:34;5.90;;;2.45;;
78561;SDS011;68963;52.138;5.446;2023-04-15T11:38:04;5.60;;;2.45;;
78561;SDS011;68963;52.138;5.446;2023-04-15T11:40:33;6.35;;;2.40;;
78561;SDS011;68963;52.138;5.446;2023-04-15T11:45:51;5.55;;;2.50;;
78561;SDS011;68963;52.138;5.446;2023-04-15T11:48:24;6.13;;;2.78;;
78561;SDS011;68963;52.138;5.446;2023-04-15T11:50:53;6.05;;;2.60;;
78561;SDS011;68963;52.138;5.446;2023-04-15T11:53:25;5.45;;;2.30;;
78561;SDS011;68963;52.138;5.446;2023-04-15T11:56:02;5.25;;;2.45;;
78561;SDS011;68963;52.138;5.446;2023-04-15T11:58:29;6.78;;;3.08;;
78561;SDS011;68963;52.138;5.446;2023-04-15T12:00:57;5.85;;;2.75;;
78561;SDS011;68963;52.138;5.446;2023-04-15T12:03:25;6.95;;;3.40;;
78561;SDS011;68963;52.138;5.446;2023-04-15T12:08:51;5.38;;;2.58;;
78561;SDS011;68963;52.138;5.446;2023-04-15T12:16:35;5.80;;;2.60;;
78561;SDS011;68963;52.138;5.446;2023-04-15T12:19:16;5.70;;;2.45;;
78561;SDS011;68963;52.138;5.446;2023-04-15T12:21:47;5.07;;;2.00;;
78561;SDS011;68963;52.138;5.446;2023-04-15T12:24:14;5.88;;;2.17;;
78561;SDS011;68963;52.138;5.446;2023-04-15T12:26:45;5.15;;;2.20;;
78561;SDS011;68963;52.138;5.446;2023-04-15T12:29:14;5.07;;;1.70;;
78561;SDS011;68963;52.138;5.446;2023-04-15T12:31:52;4.63;;;1.85;;
78561;SDS011;68963;52.138;5.446;2023-04-15T12:36:53;5.18;;;1.85;;
78561;SDS011;68963;52.138;5.446;2023-04-15T12:39:23;5.65;;;1.85;;
78561;SDS011;68963;52.138;5.446;2023-04-15T12:41:50;5.40;;;1.98;;
78561;SDS011;68963;52.138;5.446;2023-04-15T12:44:17;4.03;;;1.80;;
78561;SDS011;68963;52.138;5.446;2023-04-15T12:46:45;5.32;;;2.17;;
78561;SDS011;68963;52.138;5.446;2023-04-15T12:49:12;6.57;;;2.00;;
78561;SDS011;68963;52.138;5.446;2023-04-15T12:51:39;7.50;;;2.50;;
78561;SDS011;68963;52.138;5.446;2023-04-15T12:54:06;5.20;;;2.67;;
78561;SDS011;68963;52.138;5.446;2023-04-15T12:56:33;5.20;;;2.10;;
78561;SDS011;68963;52.138;5.446;2023-04-15T12:58:59;5.65;;;2.00;;
78561;SDS011;68963;52.138;5.446;2023-04-15T13:01:26;5.03;;;2.25;;
78561;SDS011;68963;52.138;5.446;2023-04-15T13:03:52;3.97;;;1.60;;
78561;SDS011;68963;52.138;5.446;2023-04-15T13:06:19;4.80;;;1.70;;
78561;SDS011;68963;52.138;5.446;2023-04-15T13:08:46;4.13;;;1.85;;
78561;SDS011;68963;52.138;5.446;2023-04-15T13:11:23;4.03;;;1.67;;
78561;SDS011;68963;52.138;5.446;2023-04-15T13:13:50;4.90;;;1.88;;
78561;SDS011;68963;52.138;5.446;2023-04-15T13:16:18;5.70;;;1.90;;
78561;SDS011;68963;52.138;5.446;2023-04-15T13:18:44;5.03;;;2.20;;
78561;SDS011;68963;52.138;5.446;2023-04-15T13:21:11;4.38;;;2.10;;
78561;SDS011;68963;52.138;5.446;2023-04-15T13:23:39;5.28;;;2.20;;
78561;SDS011;68963;52.138;5.446;2023-04-15T13:26:06;4.45;;;2.00;;
78561;SDS011;68963;52.138;5.446;2023-04-15T13:28:33;4.70;;;2.17;;
78561;SDS011;68963;52.138;5.446;2023-04-15T13:31:00;4.80;;;1.90;;
78561;SDS011;68963;52.138;5.446;2023-04-15T13:33:26;5.50;;;2.20;;
78561;SDS011;68963;52.138;5.446;2023-04-15T13:35:53;4.68;;;1.80;;
78561;SDS011;68963;52.138;5.446;2023-04-15T13:38:19;4.78;;;2.20;;
78561;SDS011;68963;52.138;5.446;2023-04-15T13:40:46;4.22;;;1.75;;
78561;SDS011;68963;52.138;5.446;2023-04-15T13:43:13;7.45;;;2.17;;
78561;SDS011;68963;52.138;5.446;2023-04-15T13:45:39;5.30;;;2.35;;
78561;SDS011;68963;52.138;5.446;2023-04-15T13:48:06;4.82;;;1.77;;
78561;SDS011;68963;52.138;5.446;2023-04-15T13:50:32;4.10;;;1.80;;
78561;SDS011;68963;52.138;5.446;2023-04-15T13:52:59;5.40;;;1.67;;
78561;SDS011;68963;52.138;5.446;2023-04-15T13:55:25;4.72;;;1.80;;
78561;SDS011;68963;52.138;5.446;2023-04-15T13:57:53;4.50;;;1.67;;
78561;SDS011;68963;52.138;5.446;2023-04-15T14:00:21;4.82;;;1.40;;
78561;SDS011;68963;52.138;5.446;2023-04-15T14:02:47;4.40;;;1.30;;
78561;SDS011;68963;52.138;5.446;2023-04-15T14:05:14;3.90;;;1.20;;
78561;SDS011;68963;52.138;5.446;2023-04-15T14:07:41;3.72;;;1.52;;
78561;SDS011;68963;52.138;5.446;2023-04-15T14:10:07;3.65;;;1.40;;
78561;SDS011;68963;52.138;5.446;2023-04-15T14:12:34;3.70;;;1.50;;
78561;SDS011;68963;52.138;5.446;2023-04-15T14:15:00;3.67;;;1.55;;
78561;SDS011;68963;52.138;5.446;2023-04-15T14:17:27;4.95;;;1.60;;
78561;SDS011;68963;52.138;5.446;2023-04-15T14:19:54;5.60;;;1.60;;
78561;SDS011;68963;52.138;5.446;2023-04-15T14:22:20;10.13;;;2.30;;
78561;SDS011;68963;52.138;5.446;2023-04-15T14:24:46;4.55;;;1.77;;
78561;SDS011;68963;52.138;5.446;2023-04-15T14:27:14;6.65;;;2.25;;
78561;SDS011;68963;52.138;5.446;2023-04-15T14:29:41;6.25;;;2.00;;
78561;SDS011;68963;52.138;5.446;2023-04-15T14:32:08;4.65;;;2.20;;
78561;SDS011;68963;52.138;5.446;2023-04-15T14:34:37;6.97;;;2.38;;
78561;SDS011;68963;52.138;5.446;2023-04-15T14:37:04;4.93;;;2.20;;
78561;SDS011;68963;52.138;5.446;2023-04-15T14:39:31;5.80;;;2.10;;
78561;SDS011;68963;52.138;5.446;2023-04-15T14:41:58;7.22;;;2.13;;
78561;SDS011;68963;52.138;5.446;2023-04-15T14:44:24;5.75;;;2.00;;
78561;SDS011;68963;52.138;5.446;2023-04-15T14:46:51;5.38;;;2.05;;
78561;SDS011;68963;52.138;5.446;2023-04-15T14:49:17;6.28;;;2.00;;
78561;SDS011;68963;52.138;5.446;2023-04-15T14:51:45;5.88;;;1.80;;
78561;SDS011;68963;52.138;5.446;2023-04-15T14:54:11;5.45;;;1.60;;
78561;SDS011;68963;52.138;5.446;2023-04-15T14:56:37;6.00;;;1.70;;
78561;SDS011;68963;52.138;5.446;2023-04-15T14:59:04;6.88;;;1.60;;
78561;SDS011;68963;52.138;5.446;2023-04-15T15:01:31;5.90;;;1.60;;
78561;SDS011;68963;52.138;5.446;2023-04-15T15:03:59;7.57;;;1.85;;
78561;SDS011;68963;52.138;5.446;2023-04-15T15:06:25;6.10;;;1.48;;
78561;SDS011;68963;52.138;5.446;2023-04-15T15:08:52;5.55;;;1.40;;
78561;SDS011;68963;52.138;5.446;2023-04-15T15:11:19;9.18;;;2.35;;
78561;SDS011;68963;52.138;5.446;2023-04-15T15:13:46;7.28;;;1.58;;
78561;SDS011;68963;52.138;5.446;2023-04-15T15:16:12;6.35;;;1.50;;